Time;durP1;ratioP1;P1;durP2;ratioP2;P2;SDS_P1;SDS_P2;PMS_P1;PMS_P2;Temp;Humidity;BMP_temperature;BMP_pressure;BME280_temperature;BME280_humidity;BME280_pressure;Samples;Min_cycle;Max_cycle;Signal;HPM_P1;HPM_P2
2021/09/13 00:01:55;;;;;;;3.90;1.90;;;19.00;52.70;;;;;;5009806;28;20631;-58
2021/09/13 00:04:26;;;;;;;4.05;2.00;;;19.00;52.70;;;;;;5009256;28;20236;-53
2021/09/13 00:06:56;;;;;;;4.00;1.80;;;19.00;52.60;;;;;;5028223;28;20204;-54
2021/09/13 00:09:27;;;;;;;2.15;1.92;;;19.00;52.60;;;;;;5029591;28;20242;-51
2021/09/13 00:11:59;;;;;;;4.88;1.90;;;19.00;52.60;;;;;;5012459;28;21095;-55
2021/09/13 00:14:30;;;;;;;3.65;2.03;;;19.00;52.60;;;;;;5009517;28;20275;-58
2021/09/13 00:17:00;;;;;;;3.05;1.60;;;19.10;52.60;;;;;;5010588;28;20292;-57
2021/09/13 00:19:30;;;;;;;3.97;2.08;;;19.10;52.60;;;;;;5010220;28;20212;-59
2021/09/13 00:22:01;;;;;;;3.00;1.70;;;19.10;52.70;;;;;;5014517;28;20321;-49
2021/09/13 00:24:31;;;;;;;2.95;1.70;;;19.10;52.90;;;;;;5029373;28;20266;-58
2021/09/13 00:27:04;;;;;;;2.38;1.30;;;19.10;53.00;;;;;;5029969;28;20211;-59
2021/09/13 00:29:34;;;;;;;3.22;1.33;;;19.20;53.10;;;;;;5029934;28;20212;-59
2021/09/13 00:32:05;;;;;;;2.72;1.60;;;19.20;53.20;;;;;;5011055;28;20232;-58
2021/09/13 00:34:35;;;;;;;1.95;1.23;;;19.20;53.20;;;;;;5009517;28;20236;-57
2021/09/13 00:37:06;;;;;;;3.20;1.63;;;19.30;53.10;;;;;;5010072;28;20204;-58
2021/09/13 00:39:37;;;;;;;2.20;1.30;;;19.30;53.00;;;;;;5009848;28;20685;-59
2021/09/13 00:42:09;;;;;;;3.47;1.75;;;19.30;53.00;;;;;;5007983;28;20602;-54
2021/09/13 00:44:40;;;;;;;2.38;1.40;;;19.30;53.00;;;;;;5010634;28;20286;-58
2021/09/13 00:47:10;;;;;;;3.78;1.50;;;19.40;52.90;;;;;;5009806;28;20263;-59
2021/09/13 00:49:41;;;;;;;2.42;1.20;;;19.40;52.80;;;;;;5010775;28;20286;-58
2021/09/13 00:52:11;;;;;;;1.63;1.10;;;19.40;52.80;;;;;;5045452;22;20263;-57
2021/09/13 00:54:42;;;;;;;1.42;0.98;;;19.40;52.80;;;;;;5033178;28;20255;-48
2021/09/13 00:57:14;;;;;;;1.52;1.23;;;19.50;52.80;;;;;;5036420;28;20243;-56
2021/09/13 00:59:45;;;;;;;2.28;1.40;;;19.50;52.70;;;;;;5053779;28;20235;-45
2021/09/13 01:02:15;;;;;;;1.77;1.25;;;19.50;52.70;;;;;;5035450;28;20220;-54
2021/09/13 01:04:45;;;;;;;2.90;1.35;;;19.50;52.60;;;;;;5032973;28;20304;-47
2021/09/13 01:07:16;;;;;;;1.70;1.40;;;19.50;52.60;;;;;;5033588;28;20285;-52
2021/09/13 01:09:46;;;;;;;1.50;0.88;;;19.60;52.60;;;;;;5032757;28;20254;-51
2021/09/13 01:12:19;;;;;;;0.95;0.85;;;19.60;52.50;;;;;;5025816;28;20652;-52
2021/09/13 01:14:49;;;;;;;1.90;1.20;;;19.60;52.40;;;;;;5012530;28;20672;-54
2021/09/13 01:17:20;;;;;;;1.58;1.20;;;19.60;52.30;;;;;;5013587;28;20274;-49
2021/09/13 01:19:50;;;;;;;1.33;0.98;;;19.70;52.30;;;;;;5013083;28;20236;-52
2021/09/13 01:22:21;;;;;;;1.73;0.90;;;19.70;52.30;;;;;;5013064;28;21137;-50
2021/09/13 01:24:53;;;;;;;1.00;0.80;;;19.70;52.30;;;;;;5012638;28;20283;-56
2021/09/13 01:27:24;;;;;;;1.35;1.08;;;19.80;52.20;;;;;;5012761;28;20232;-51
2021/09/13 01:29:54;;;;;;;1.65;1.00;;;19.80;52.20;;;;;;5012933;28;20251;-53
2021/09/13 01:32:25;;;;;;;0.90;0.80;;;19.80;52.20;;;;;;5012836;28;20264;-57
2021/09/13 01:34:55;;;;;;;1.02;0.80;;;19.80;52.10;;;;;;5012748;28;20267;-58
2021/09/13 01:37:26;;;;;;;1.60;0.80;;;19.80;52.00;;;;;;5012279;28;20332;-59
2021/09/13 01:39:58;;;;;;;1.98;0.77;;;19.80;52.00;;;;;;5016242;28;20269;-55
2021/09/13 01:42:28;;;;;;;1.27;0.70;;;19.90;51.90;;;;;;5032924;28;20259;-56
2021/09/13 01:44:59;;;;;;;1.20;0.80;;;19.90;51.90;;;;;;5015428;28;20200;-47
2021/09/13 01:47:29;;;;;;;0.82;0.63;;;19.90;51.90;;;;;;5018427;28;20254;-57
2021/09/13 01:50:00;;;;;;;0.93;0.60;;;19.90;51.80;;;;;;5015681;28;20240;-54
2021/09/13 01:52:30;;;;;;;1.65;0.57;;;20.00;51.50;;;;;;5012616;28;20256;-56
2021/09/13 01:55:03;;;;;;;0.57;0.50;;;20.10;50.90;;;;;;5040730;22;20255;-57
2021/09/13 01:57:33;;;;;;;0.82;0.60;;;20.10;50.70;;;;;;5031942;28;20212;-59
2021/09/13 02:00:03;;;;;;;0.98;0.60;;;20.10;50.80;;;;;;5032129;28;20247;-59
2021/09/13 02:02:34;;;;;;;0.65;0.50;;;20.10;50.80;;;;;;5029751;28;20247;-58
2021/09/13 02:05:04;;;;;;;0.90;0.70;;;20.20;50.80;;;;;;5032885;28;20235;-58
2021/09/13 02:07:35;;;;;;;0.85;0.60;;;20.20;50.80;;;;;;5032014;28;20686;-56
2021/09/13 02:10:08;;;;;;;0.75;0.60;;;20.30;50.90;;;;;;5031859;28;20560;-55
2021/09/13 02:12:38;;;;;;;0.93;0.70;;;20.30;50.90;;;;;;5030765;28;20266;-58
2021/09/13 02:15:09;;;;;;;0.50;0.50;;;20.30;50.80;;;;;;5027530;28;20251;-59
2021/09/13 02:17:39;;;;;;;0.52;0.40;;;20.30;50.70;;;;;;5032641;28;20266;-56
2021/09/13 02:20:11;;;;;;;0.90;0.60;;;20.40;50.70;;;;;;5031310;28;20287;-59
2021/09/13 02:22:41;;;;;;;1.08;0.60;;;20.40;50.60;;;;;;5032873;28;20239;-60
2021/09/13 02:25:14;;;;;;;1.42;0.50;;;20.40;50.60;;;;;;5031181;28;20250;-59
2021/09/13 02:27:44;;;;;;;1.52;0.55;;;20.40;50.50;;;;;;5031955;28;20256;-59
2021/09/13 02:30:15;;;;;;;1.15;0.50;;;20.50;50.60;;;;;;5031413;28;20208;-58
2021/09/13 02:32:45;;;;;;;0.95;0.70;;;20.50;50.70;;;;;;5030392;28;20301;-54
2021/09/13 02:35:16;;;;;;;1.00;0.50;;;20.50;50.70;;;;;;5030728;28;20247;-59
2021/09/13 02:37:46;;;;;;;0.70;0.60;;;20.50;50.70;;;;;;5030853;28;20236;-57
2021/09/13 02:40:19;;;;;;;1.98;0.40;;;20.50;50.60;;;;;;5030448;28;20240;-57
2021/09/13 02:42:50;;;;;;;0.95;0.50;;;20.50;50.50;;;;;;5031267;28;20578;-59
2021/09/13 02:45:20;;;;;;;0.60;0.50;;;20.50;50.50;;;;;;5012567;28;20223;-59
2021/09/13 02:47:51;;;;;;;0.30;0.30;;;20.60;50.50;;;;;;5018055;28;20438;-58
2021/09/13 02:50:21;;;;;;;1.63;0.60;;;20.60;50.50;;;;;;5032081;28;20289;-59
2021/09/13 02:52:52;;;;;;;0.40;0.30;;;20.60;50.50;;;;;;5028737;28;20266;-56
2021/09/13 02:55:24;;;;;;;1.25;0.60;;;20.70;50.50;;;;;;5058391;22;20247;-58
2021/09/13 02:57:55;;;;;;;0.75;0.50;;;20.70;50.40;;;;;;5051038;28;20261;-45
2021/09/13 03:00:25;;;;;;;0.40;0.40;;;20.70;50.30;;;;;;5047944;28;20239;-57
2021/09/13 03:03:04;;;;;;;0.60;0.47;;;20.80;50.20;;;;;;5030754;28;20227;-57
2021/09/13 03:05:37;;;;;;;0.85;0.50;;;20.80;50.20;;;;;;5010954;28;20212;-58
2021/09/13 03:08:08;;;;;;;0.80;0.50;;;20.80;50.10;;;;;;5010861;28;20244;-58
2021/09/13 03:10:40;;;;;;;0.77;0.50;;;20.90;50.10;;;;;;5010878;28;20260;-58
2021/09/13 03:13:10;;;;;;;0.85;0.50;;;20.90;50.10;;;;;;5029691;28;20239;-58
2021/09/13 03:15:41;;;;;;;0.50;0.32;;;20.90;50.10;;;;;;5010611;28;20259;-58
2021/09/13 03:18:11;;;;;;;0.82;0.65;;;21.00;50.20;;;;;;5010763;28;20263;-59
2021/09/13 03:20:42;;;;;;;0.55;0.40;;;20.90;50.20;;;;;;5010378;28;20655;-52
2021/09/13 03:23:12;;;;;;;0.43;0.43;;;21.00;50.20;;;;;;5010112;28;20637;-52
2021/09/13 03:25:44;;;;;;;1.05;0.90;;;21.10;50.30;;;;;;5011113;28;20240;-50
2021/09/13 03:28:15;;;;;;;1.00;0.52;;;21.10;50.40;;;;;;5010510;28;20275;-56
2021/09/13 03:30:45;;;;;;;0.68;0.47;;;21.10;50.10;;;;;;5010626;28;20275;-57
2021/09/13 03:33:16;;;;;;;0.95;0.55;;;21.10;50.10;;;;;;5010519;28;20264;-51
2021/09/13 03:35:46;;;;;;;2.00;0.80;;;21.20;50.10;;;;;;5010815;28;20236;-52
2021/09/13 03:38:17;;;;;;;1.77;0.60;;;21.20;50.00;;;;;;5010504;28;20239;-58
2021/09/13 03:40:49;;;;;;;1.45;0.70;;;21.20;49.80;;;;;;5013835;28;20665;-57
2021/09/13 03:43:19;;;;;;;1.45;0.65;;;21.20;49.70;;;;;;5027753;28;20254;-55
2021/09/13 03:45:50;;;;;;;1.02;0.50;;;21.30;49.70;;;;;;5029942;28;20239;-53
2021/09/13 03:48:20;;;;;;;1.95;0.70;;;21.30;49.70;;;;;;5029044;28;20313;-46
2021/09/13 03:50:51;;;;;;;4.93;0.88;;;21.30;49.60;;;;;;5030566;28;20299;-55
2021/09/13 03:53:21;;;;;;;2.00;0.82;;;21.30;49.50;;;;;;5031081;28;20220;-53
2021/09/13 03:55:53;;;;;;;2.03;0.90;;;21.30;49.60;;;;;;5027642;28;20243;-59
2021/09/13 03:58:24;;;;;;;2.45;0.90;;;21.30;49.70;;;;;;5030442;28;20247;-56
2021/09/13 04:00:55;;;;;;;2.25;0.95;;;21.30;49.60;;;;;;5027386;28;20263;-55
2021/09/13 04:03:30;;;;;;;1.90;0.73;;;21.30;49.50;;;;;;5029221;28;20664;-57
2021/09/13 04:06:01;;;;;;;2.13;0.80;;;21.30;49.40;;;;;;5029529;28;20211;-57
2021/09/13 04:08:44;;;;;;;1.88;0.95;;;21.30;49.50;;;;;;5029556;28;20421;-54
2021/09/13 04:11:23;;;;;;;2.58;1.10;;;21.30;49.30;;;;;;5029276;28;20219;-54
2021/09/13 04:13:53;;;;;;;2.20;0.80;;;21.30;49.40;;;;;;5023826;28;20216;-50
2021/09/13 04:16:24;;;;;;;2.15;0.80;;;21.30;49.30;;;;;;5010729;28;20677;-59
2021/09/13 04:18:54;;;;;;;3.05;1.17;;;21.30;49.20;;;;;;5010868;28;20254;-55
2021/09/13 04:21:25;;;;;;;1.75;0.80;;;21.30;49.30;;;;;;5010635;28;20283;-57
2021/09/13 04:23:55;;;;;;;1.95;0.82;;;21.20;49.20;;;;;;5009879;28;20237;-58
2021/09/13 04:26:28;;;;;;;2.40;0.60;;;21.20;49.20;;;;;;5011209;28;20244;-52
2021/09/13 04:28:58;;;;;;;2.65;0.95;;;21.20;49.20;;;;;;5014098;28;20244;-57
2021/09/13 04:31:29;;;;;;;2.13;0.95;;;21.20;49.20;;;;;;5014166;28;20260;-51
2021/09/13 04:33:59;;;;;;;3.65;1.20;;;21.20;49.30;;;;;;5013187;28;20224;-52
2021/09/13 04:36:30;;;;;;;2.85;1.08;;;21.20;49.20;;;;;;5013668;28;20291;-55
2021/09/13 04:39:00;;;;;;;2.88;1.30;;;21.20;49.30;;;;;;5014104;28;20255;-47
2021/09/13 04:41:32;;;;;;;2.35;0.75;;;21.10;49.30;;;;;;5018854;28;20263;-54
2021/09/13 04:44:03;;;;;;;2.70;1.10;;;21.10;49.30;;;;;;5025820;28;20240;-52
2021/09/13 04:46:33;;;;;;;2.72;0.85;;;21.10;49.40;;;;;;5018136;28;20246;-58
2021/09/13 04:49:04;;;;;;;3.58;0.80;;;21.10;49.40;;;;;;5033395;28;20660;-48
2021/09/13 04:51:36;;;;;;;2.75;1.30;;;21.10;49.40;;;;;;5033437;28;20651;-47
2021/09/13 04:54:06;;;;;;;1.70;0.80;;;21.10;49.40;;;;;;5025453;28;20225;-48
2021/09/13 04:56:39;;;;;;;2.17;1.13;;;21.10;49.40;;;;;;5012813;28;20296;-52
2021/09/13 04:59:10;;;;;;;3.15;1.05;;;21.00;49.20;;;;;;5014193;28;20205;-59
2021/09/13 05:01:40;;;;;;;3.25;1.15;;;21.10;49.30;;;;;;5013545;28;20275;-54
2021/09/13 05:04:11;;;;;;;2.38;1.20;;;21.00;49.40;;;;;;5012953;28;20537;-58
2021/09/13 05:06:41;;;;;;;3.83;1.30;;;21.00;49.30;;;;;;5014131;28;20286;-59
2021/09/13 05:09:12;;;;;;;1.90;1.00;;;21.00;49.30;;;;;;5013684;28;20200;-57
2021/09/13 05:11:44;;;;;;;4.68;1.30;;;21.00;49.30;;;;;;5021589;28;20289;-56
2021/09/13 05:14:14;;;;;;;3.30;1.13;;;21.00;49.30;;;;;;5022667;28;20298;-59
2021/09/13 05:16:45;;;;;;;3.83;1.10;;;20.90;49.30;;;;;;5013620;28;20243;-58
2021/09/13 05:19:15;;;;;;;2.38;1.00;;;20.90;49.30;;;;;;5013407;28;20240;-57
2021/09/13 05:21:46;;;;;;;3.53;1.70;;;20.90;49.30;;;;;;5013356;28;20236;-59
2021/09/13 05:24:16;;;;;;;3.03;1.52;;;20.90;49.30;;;;;;5014342;28;20252;-60
2021/09/13 05:26:48;;;;;;;5.00;1.48;;;20.90;49.30;;;;;;5013317;28;20240;-57
2021/09/13 05:29:19;;;;;;;2.03;1.10;;;20.80;49.20;;;;;;5013354;28;20240;-57
2021/09/13 05:31:49;;;;;;;4.75;1.75;;;20.80;49.30;;;;;;5013359;28;20229;-52
2021/09/13 05:34:20;;;;;;;3.92;1.55;;;20.80;49.30;;;;;;5013578;28;20256;-51
2021/09/13 05:36:50;;;;;;;5.93;1.42;;;20.80;49.30;;;;;;5013455;28;20244;-51
2021/09/13 05:39:21;;;;;;;2.90;1.60;;;20.80;49.30;;;;;;5020104;28;20242;-50
2021/09/13 05:41:53;;;;;;;5.75;1.55;;;20.70;49.20;;;;;;5030265;28;20255;-52
2021/09/13 05:44:23;;;;;;;3.50;1.50;;;20.70;49.30;;;;;;5033511;28;20204;-56
2021/09/13 05:46:54;;;;;;;2.38;1.15;;;20.70;49.40;;;;;;5033285;28;20196;-52
2021/09/13 05:49:25;;;;;;;4.93;1.60;;;20.70;49.40;;;;;;5020833;28;20251;-54
2021/09/13 05:51:55;;;;;;;2.92;1.50;;;20.60;49.30;;;;;;5012949;28;20260;-47
2021/09/13 05:54:27;;;;;;;2.55;1.45;;;20.60;49.90;;;;;;5039792;22;20252;-51
2021/09/13 05:57:00;;;;;;;3.33;1.40;;;20.50;49.30;;;;;;5031907;28;20387;-58
2021/09/13 05:59:32;;;;;;;2.63;1.42;;;20.50;49.30;;;;;;5043953;28;20626;-57
2021/09/13 06:02:05;;;;;;;2.33;1.40;;;20.50;49.30;;;;;;5030909;28;20561;-50
2021/09/13 06:04:37;;;;;;;3.60;1.70;;;20.50;49.30;;;;;;5031241;28;20212;-57
2021/09/13 06:07:11;;;;;;;2.42;1.70;;;20.40;49.30;;;;;;5031917;28;20218;-56
2021/09/13 06:09:41;;;;;;;3.50;1.92;;;20.40;49.30;;;;;;5045903;28;20211;-50
2021/09/13 06:12:16;;;;;;;3.03;1.80;;;20.40;49.20;;;;;;5040351;28;20235;-57
2021/09/13 06:14:48;;;;;;;4.00;1.95;;;20.40;49.30;;;;;;5031388;28;20204;-54
2021/09/13 06:17:18;;;;;;;3.35;2.00;;;20.30;49.30;;;;;;5032287;28;20208;-51
2021/09/13 06:19:49;;;;;;;3.03;1.95;;;20.30;49.30;;;;;;5031118;28;20208;-43
2021/09/13 06:22:19;;;;;;;3.70;1.77;;;20.30;49.40;;;;;;5029493;28;20603;-50
2021/09/13 06:24:50;;;;;;;5.03;2.28;;;20.20;49.40;;;;;;5032392;28;20601;-57
2021/09/13 06:27:22;;;;;;;2.80;2.13;;;20.20;49.40;;;;;;5028721;28;20719;-49
2021/09/13 06:29:53;;;;;;;5.25;2.53;;;20.20;49.40;;;;;;5044193;28;20963;-50
2021/09/13 06:32:23;;;;;;;4.45;2.38;;;20.20;49.40;;;;;;5051901;28;20277;-48
2021/09/13 06:34:54;;;;;;;4.68;2.25;;;20.10;49.40;;;;;;5046775;28;20239;-40
2021/09/13 06:37:24;;;;;;;3.80;2.40;;;20.10;49.40;;;;;;5032544;28;20262;-47
2021/09/13 06:39:58;;;;;;;4.80;2.70;;;20.10;49.50;;;;;;5032539;28;20580;-41
2021/09/13 06:42:30;;;;;;;3.53;2.30;;;20.00;49.50;;;;;;5032117;28;20224;-46
2021/09/13 06:45:08;;;;;;;4.25;2.70;;;20.00;49.50;;;;;;5031936;28;20200;-45
2021/09/13 06:47:48;;;;;;;4.18;2.30;;;20.00;49.50;;;;;;5032081;28;20622;-42
2021/09/13 06:50:19;;;;;;;2.70;1.92;;;19.90;49.40;;;;;;5031359;28;20235;-44
2021/09/13 06:52:50;;;;;;;4.95;2.35;;;19.90;49.50;;;;;;5031496;28;20680;-46
2021/09/13 06:55:20;;;;;;;3.13;2.20;;;19.90;49.50;;;;;;5043718;22;20251;-50
2021/09/13 06:57:53;;;;;;;5.10;2.55;;;19.90;49.50;;;;;;5031882;28;20258;-56
2021/09/13 07:00:23;;;;;;;4.40;2.83;;;19.80;49.50;;;;;;5032241;28;20204;-51
2021/09/13 07:02:54;;;;;;;4.68;2.40;;;19.80;49.50;;;;;;5031821;28;20295;-51
2021/09/13 07:05:24;;;;;;;3.80;2.50;;;19.80;49.60;;;;;;5031755;28;20246;-59
2021/09/13 07:07:55;;;;;;;5.07;2.65;;;19.70;49.50;;;;;;5031817;28;20265;-56
2021/09/13 07:10:25;;;;;;;4.40;2.45;;;19.70;49.50;;;;;;5032026;28;20236;-50
2021/09/13 07:12:58;;;;;;;6.32;3.15;;;19.70;49.50;;;;;;5031556;28;20317;-51
2021/09/13 07:15:28;;;;;;;5.70;2.75;;;19.70;49.60;;;;;;5031591;28;20298;-51
2021/09/13 07:17:59;;;;;;;3.60;2.58;;;19.60;49.50;;;;;;5032093;28;20678;-52
2021/09/13 07:20:30;;;;;;;5.75;3.00;;;19.60;49.50;;;;;;5031864;28;20235;-53
2021/09/13 07:23:00;;;;;;;3.55;2.55;;;19.60;49.60;;;;;;5031654;28;20247;-51
2021/09/13 07:25:31;;;;;;;4.75;2.88;;;19.50;49.50;;;;;;5031650;28;20235;-56
2021/09/13 07:28:03;;;;;;;4.63;2.72;;;19.50;49.50;;;;;;5031493;28;20733;-56
2021/09/13 07:30:34;;;;;;;5.20;2.65;;;19.50;49.60;;;;;;5031018;28;20223;-49
2021/09/13 07:33:05;;;;;;;5.07;2.60;;;19.50;49.60;;;;;;5026480;28;20243;-52
2021/09/13 07:35:35;;;;;;;7.22;5.80;;;19.40;49.50;;;;;;5011545;28;20677;-48
2021/09/13 07:38:06;;;;;;;12.50;6.88;;;19.40;49.80;;;;;;5011936;28;20240;-57
2021/09/13 07:40:36;;;;;;;12.30;7.55;;;19.40;50.20;;;;;;5011532;28;20690;-57
2021/09/13 07:43:08;;;;;;;9.63;7.22;;;19.40;50.60;;;;;;5030411;28;20258;-55
2021/09/13 07:45:39;;;;;;;10.18;7.35;;;19.40;50.80;;;;;;5031121;28;20200;-52
2021/09/13 07:48:09;;;;;;;10.48;7.25;;;19.40;50.80;;;;;;5029556;28;20684;-58
2021/09/13 07:50:40;;;;;;;8.98;6.15;;;19.40;50.70;;;;;;5031368;28;20314;-56
2021/09/13 07:53:10;;;;;;;9.35;6.10;;;19.40;50.60;;;;;;5030735;28;20239;-56
2021/09/13 07:55:41;;;;;;;10.27;5.97;;;19.40;50.60;;;;;;5030794;28;20203;-53
2021/09/13 07:58:13;;;;;;;8.27;6.03;;;19.40;50.60;;;;;;5011029;28;20295;-54
2021/09/13 08:00:43;;;;;;;11.35;6.10;;;19.30;50.50;;;;;;5010861;28;20642;-52
2021/09/13 08:03:14;;;;;;;8.85;5.63;;;19.30;50.50;;;;;;5010686;28;20201;-54
2021/09/13 08:05:44;;;;;;;9.85;5.65;;;19.30;50.50;;;;;;5011146;28;20703;-52
2021/09/13 08:08:15;;;;;;;7.22;5.20;;;19.30;50.60;;;;;;5010992;28;20236;-53
2021/09/13 08:10:48;;;;;;;11.95;6.00;;;19.30;50.70;;;;;;5011371;28;20291;-54
2021/09/13 08:13:20;;;;;;;8.32;5.40;;;19.30;50.80;;;;;;5011208;28;20232;-56
2021/09/13 08:15:50;;;;;;;10.32;6.00;;;19.30;51.00;;;;;;5011188;28;20263;-56
2021/09/13 08:18:22;;;;;;;8.45;5.30;;;19.30;51.10;;;;;;5010931;28;20783;-55
2021/09/13 08:20:52;;;;;;;9.93;5.82;;;19.20;51.10;;;;;;5011171;28;20229;-50
2021/09/13 08:23:23;;;;;;;8.73;5.68;;;19.20;51.20;;;;;;5019839;28;20307;-58
2021/09/13 08:25:53;;;;;;;9.70;5.65;;;19.20;51.20;;;;;;5030629;28;20258;-50
2021/09/13 08:28:26;;;;;;;10.57;5.68;;;19.20;51.20;;;;;;5030239;28;20250;-52
2021/09/13 08:30:56;;;;;;;8.75;5.20;;;19.20;51.20;;;;;;5030107;28;20251;-50
2021/09/13 08:33:27;;;;;;;10.13;5.45;;;19.20;51.10;;;;;;5030199;28;20255;-53
2021/09/13 08:35:57;;;;;;;7.43;4.93;;;19.20;51.10;;;;;;5029934;28;20243;-49
2021/09/13 08:38:27;;;;;;;9.05;5.38;;;19.10;51.00;;;;;;5030386;28;20204;-51
2021/09/13 08:40:58;;;;;;;7.60;5.22;;;19.10;51.00;;;;;;5030785;28;20766;-52
2021/09/13 08:43:30;;;;;;;5.75;4.47;;;19.10;51.00;;;;;;5030961;28;20262;-53
2021/09/13 08:46:03;;;;;;;7.88;4.88;;;19.10;51.00;;;;;;5030889;28;20239;-51
2021/09/13 08:48:34;;;;;;;7.88;4.43;;;19.00;51.00;;;;;;5030910;28;20204;-55
2021/09/13 08:51:17;;;;;;;6.93;4.35;;;19.00;51.00;;;;;;5030880;28;20274;-56
2021/09/13 08:53:49;;;;;;;7.95;4.75;;;19.00;51.00;;;;;;5031069;28;20311;-59
2021/09/13 08:56:24;;;;;;;6.40;4.60;;;19.00;51.00;;;;;;5030361;28;20215;-57
2021/09/13 08:58:56;;;;;;;7.78;4.38;;;18.90;50.90;;;;;;5030191;28;20295;-58
2021/09/13 09:01:27;;;;;;;6.82;4.32;;;19.00;51.50;;;;;;5030210;28;20657;-59
2021/09/13 09:03:57;;;;;;;6.70;3.92;;;18.90;50.90;;;;;;5030058;28;20680;-58
2021/09/13 09:06:37;;;;;;;5.78;3.72;;;18.90;50.90;;;;;;5030440;28;20200;-55
2021/09/13 09:09:08;;;;;;;7.05;3.88;;;18.80;50.90;;;;;;5030369;28;20746;-55
2021/09/13 09:11:56;;;;;;;9.45;4.45;;;18.80;50.80;;;;;;5030145;28;20227;-57
2021/09/13 09:14:33;;;;;;;6.30;4.15;;;18.80;50.80;;;;;;5033950;28;20593;-54
2021/09/13 09:17:05;;;;;;;6.20;3.65;;;18.80;50.80;;;;;;5033724;28;20204;-50
2021/09/13 09:19:35;;;;;;;6.75;4.03;;;18.80;50.80;;;;;;5033246;28;20204;-55
2021/09/13 09:22:26;;;;;;;5.07;3.65;;;18.70;50.80;;;;;;5033221;28;20274;-52
2021/09/13 09:24:57;;;;;;;5.55;3.83;;;18.70;50.80;;;;;;5033669;28;20231;-54
2021/09/13 09:27:28;;;;;;;6.03;3.90;;;18.70;50.80;;;;;;5033622;28;20242;-57
2021/09/13 09:30:01;;;;;;;6.22;4.20;;;18.70;50.80;;;;;;5033270;28;20212;-51
2021/09/13 09:32:31;;;;;;;7.93;4.13;;;18.60;50.80;;;;;;5033110;28;20310;-57
2021/09/13 09:35:01;;;;;;;7.07;3.88;;;18.60;50.80;;;;;;5033768;28;20255;-56
2021/09/13 09:37:32;;;;;;;5.47;3.78;;;18.60;50.90;;;;;;5033719;28;20251;-54
2021/09/13 09:40:05;;;;;;;6.15;3.67;;;18.60;51.00;;;;;;5032382;28;20297;-55
2021/09/13 09:42:35;;;;;;;5.75;4.13;;;18.60;51.00;;;;;;5032984;28;20207;-53
2021/09/13 09:45:09;;;;;;;6.28;3.65;;;18.60;51.00;;;;;;5033415;28;20281;-57
2021/09/13 09:47:39;;;;;;;5.57;3.80;;;18.50;51.00;;;;;;5033470;28;20236;-58
2021/09/13 09:50:10;;;;;;;7.05;3.80;;;18.50;51.00;;;;;;5033274;28;20243;-55
2021/09/13 09:52:41;;;;;;;6.43;3.50;;;18.50;51.00;;;;;;5033581;28;20212;-49
2021/09/13 09:55:13;;;;;;;5.45;3.33;;;18.50;51.00;;;;;;5033230;28;20326;-58
2021/09/13 09:57:43;;;;;;;5.25;3.05;;;18.50;51.00;;;;;;5032544;28;20203;-56
2021/09/13 10:00:28;;;;;;;5.18;3.40;;;18.50;51.00;;;;;;5033390;28;20240;-58
2021/09/13 10:02:59;;;;;;;5.93;3.35;;;18.40;51.00;;;;;;5033018;28;20746;-58
2021/09/13 10:05:29;;;;;;;5.30;3.17;;;18.40;51.00;;;;;;5032898;28;20240;-59
2021/09/13 10:08:00;;;;;;;5.68;3.15;;;18.40;51.00;;;;;;5033339;28;20200;-54
2021/09/13 10:10:31;;;;;;;5.10;3.22;;;18.40;51.00;;;;;;5024152;28;20264;-56
2021/09/13 10:13:02;;;;;;;5.65;3.53;;;18.40;51.00;;;;;;5028821;28;20207;-50
2021/09/13 10:15:34;;;;;;;4.03;2.88;;;18.30;51.00;;;;;;5028960;28;20259;-52
2021/09/13 10:18:04;;;;;;;5.90;3.25;;;18.30;51.00;;;;;;5030608;28;20747;-51
2021/09/13 10:20:35;;;;;;;5.07;2.85;;;18.30;51.00;;;;;;5017797;28;20312;-54
2021/09/13 10:23:05;;;;;;;5.40;3.42;;;18.30;51.10;;;;;;5011563;28;20244;-58
2021/09/13 10:25:36;;;;;;;6.78;3.38;;;18.20;51.00;;;;;;5025612;28;20269;-50
2021/09/13 10:28:07;;;;;;;5.65;3.60;;;18.20;51.00;;;;;;5031562;28;20251;-57
2021/09/13 10:30:54;;;;;;;5.30;3.30;;;18.20;51.00;;;;;;5020833;28;20286;-60
2021/09/13 10:33:25;;;;;;;4.70;3.17;;;18.20;51.00;;;;;;5031475;28;20245;-56
2021/09/13 10:35:58;;;;;;;5.13;2.92;;;18.20;51.00;;;;;;5031089;28;20336;-59
2021/09/13 10:38:45;;;;;;;5.03;2.92;;;18.10;51.00;;;;;;5031207;28;20236;-57
2021/09/13 10:41:35;;;;;;;4.18;3.00;;;18.10;51.00;;;;;;5016993;28;20224;-58
2021/09/13 10:44:09;;;;;;;6.80;3.30;;;18.10;51.00;;;;;;5032270;28;20262;-52
2021/09/13 10:47:07;;;;;;;4.88;3.00;;;18.10;51.00;;;;;;5028891;28;20243;-50
2021/09/13 10:49:38;;;;;;;6.07;3.58;;;18.00;51.00;;;;;;4991947;28;20283;-53
2021/09/13 10:52:36;;;;;;;5.53;3.47;;;18.00;51.00;;;;;;5029896;28;20794;-56
2021/09/13 10:55:27;;;;;;;4.80;3.42;;;18.00;51.00;;;;;;5030839;28;20650;-54
2021/09/13 10:58:02;;;;;;;6.75;4.03;;;18.00;51.10;;;;;;5024398;28;20234;-55
2021/09/13 11:00:57;;;;;;;4.43;3.70;;;17.90;51.00;;;;;;5018387;28;20774;-49
2021/09/13 11:03:45;;;;;;;6.03;4.47;;;17.90;51.10;;;;;;5011062;28;20204;-59
2021/09/13 11:06:46;;;;;;;5.13;3.92;;;17.90;51.10;;;;;;5011740;28;20284;-58
2021/09/13 11:09:19;;;;;;;5.85;4.55;;;17.80;51.00;;;;;;5011159;28;20665;-51
2021/09/13 11:11:54;;;;;;;7.57;4.68;;;17.80;51.00;;;;;;5020297;28;20772;-53
2021/09/13 11:14:25;;;;;;;7.50;4.80;;;17.80;51.00;;;;;;5030440;28;20748;-48
2021/09/13 11:16:56;;;;;;;7.40;4.70;;;17.80;51.10;;;;;;5030164;28;20707;-50
2021/09/13 11:19:29;;;;;;;8.57;5.47;;;17.70;51.10;;;;;;5030550;28;20471;-56
2021/09/13 11:21:59;;;;;;;7.22;5.18;;;17.70;51.10;;;;;;5008840;28;20299;-53
2021/09/13 11:24:31;;;;;;;6.45;4.60;;;17.70;51.10;;;;;;5021408;28;20273;-56
2021/09/13 11:27:01;;;;;;;7.68;4.97;;;17.60;51.10;;;;;;5027681;28;20703;-54
2021/09/13 11:29:32;;;;;;;7.07;5.07;;;17.60;51.10;;;;;;5031167;28;20243;-53
2021/09/13 11:32:03;;;;;;;8.02;4.95;;;17.60;51.70;;;;;;5011243;28;20227;-53
2021/09/13 11:34:42;;;;;;;7.82;5.35;;;17.60;51.10;;;;;;5011184;28;20699;-51
2021/09/13 11:37:12;;;;;;;7.47;5.60;;;17.60;51.20;;;;;;5009978;28;20240;-56
2021/09/13 11:39:44;;;;;;;7.32;5.05;;;17.50;51.20;;;;;;5011092;28;20205;-58
2021/09/13 11:42:16;;;;;;;9.18;5.85;;;17.60;51.20;;;;;;5022107;28;20223;-57
2021/09/13 11:44:47;;;;;;;7.50;5.18;;;17.50;51.20;;;;;;5030700;28;20204;-58
2021/09/13 11:47:17;;;;;;;6.72;4.97;;;17.50;51.20;;;;;;5030617;28;20311;-51
2021/09/13 11:49:50;;;;;;;8.48;5.32;;;17.50;51.20;;;;;;5028574;28;20255;-51
2021/09/13 11:52:23;;;;;;;6.85;5.18;;;17.40;51.20;;;;;;5030420;28;20220;-49
2021/09/13 11:54:57;;;;;;;7.32;4.90;;;17.40;51.30;;;;;;5045908;22;20227;-49
2021/09/13 11:57:35;;;;;;;7.72;4.82;;;17.40;51.30;;;;;;5037050;28;20660;-56
2021/09/13 12:00:11;;;;;;;7.10;5.25;;;17.40;51.30;;;;;;5037910;28;20234;-55
2021/09/13 12:02:42;;;;;;;7.70;5.00;;;17.40;51.30;;;;;;5031127;28;20738;-52
2021/09/13 12:05:15;;;;;;;8.40;5.07;;;17.30;51.20;;;;;;5030927;28;20637;-54
2021/09/13 12:07:46;;;;;;;7.28;4.65;;;17.30;51.20;;;;;;5031196;28;20317;-56
2021/09/13 12:10:18;;;;;;;6.60;4.80;;;17.30;51.30;;;;;;5031169;28;20251;-51
2021/09/13 12:12:49;;;;;;;8.70;5.70;;;17.20;51.20;;;;;;5031230;28;20243;-48
2021/09/13 12:15:20;;;;;;;8.30;5.35;;;17.20;51.20;;;;;;5030989;28;20259;-53
2021/09/13 12:17:50;;;;;;;7.60;5.40;;;17.20;51.30;;;;;;5031148;28;20240;-49
2021/09/13 12:20:24;;;;;;;8.50;4.97;;;17.20;51.30;;;;;;5031154;28;20690;-53
2021/09/13 12:23:02;;;;;;;8.48;5.10;;;17.20;51.30;;;;;;5031140;28;20692;-46
2021/09/13 12:25:33;;;;;;;7.03;4.57;;;17.20;51.30;;;;;;5030882;28;20218;-51
2021/09/13 12:28:04;;;;;;;6.22;4.80;;;17.10;51.30;;;;;;5030811;28;20207;-52
2021/09/13 12:30:35;;;;;;;7.15;4.53;;;17.10;51.30;;;;;;5030948;28;20231;-55
2021/09/13 12:33:06;;;;;;;7.10;4.65;;;17.10;51.30;;;;;;5030709;28;20212;-47
2021/09/13 12:35:40;;;;;;;6.50;4.50;;;17.10;51.40;;;;;;5030428;28;20220;-52
2021/09/13 12:38:12;;;;;;;6.60;5.00;;;17.10;51.40;;;;;;5030530;28;20215;-47
2021/09/13 12:40:53;;;;;;;7.63;4.85;;;17.00;51.30;;;;;;5031082;28;20718;-49
2021/09/13 12:43:24;;;;;;;7.47;5.00;;;17.00;51.40;;;;;;5031007;28;20215;-55
2021/09/13 12:46:06;;;;;;;7.30;4.63;;;17.00;51.40;;;;;;5031309;28;20692;-50
2021/09/13 12:48:37;;;;;;;6.28;4.80;;;16.90;51.30;;;;;;5034124;28;20284;-45
2021/09/13 12:51:14;;;;;;;7.30;4.82;;;16.90;51.30;;;;;;5034425;28;20232;-49
2021/09/13 12:56:24;;;;;;;7.45;5.25;;;16.90;51.40;;;;;;5012776;28;20220;-53
2021/09/13 12:58:58;;;;;;;7.20;4.60;;;16.90;51.40;;;;;;5014618;28;20205;-48
2021/09/13 13:01:35;;;;;;;6.28;4.05;;;16.80;51.30;;;;;;5014315;28;20231;-55
2021/09/13 13:04:07;;;;;;;6.75;4.88;;;16.80;51.30;;;;;;5014270;28;20200;-57
2021/09/13 13:06:39;;;;;;;7.03;4.68;;;16.80;51.30;;;;;;5013987;28;20208;-59
2021/09/13 13:09:10;;;;;;;7.40;5.10;;;16.80;51.30;;;;;;5014089;28;20205;-58
2021/09/13 13:11:42;;;;;;;6.47;4.20;;;16.80;51.40;;;;;;5014129;28;20232;-49
2021/09/13 13:14:13;;;;;;;6.90;4.22;;;16.70;51.40;;;;;;5014137;28;20687;-55